Deering Airport

About
Name: Deering Airport
Identifier:  DRG/PADE
Serves:  Deering, Alaska
Owner:  State of Alaska DOT&PF - Northern Region
Public/Private:  Public
Local Time:  17. Aug 20:33 AKDT
Description: Deering Airport is a state-owned public-use airport located two nautical miles southwest of the central business district of Deering, a city in the Northwest Arctic Borough of the U.S. state of Alaska.
Source: Wikipedia
Location
Runways
Identifier Length (m/ft) Surface
3/21 3,320/3,320 Gravel
12/30 2,660/2,660 Gravel
Flights per Day
4 flights
Distance: 87km (54mi)
Punctuality
87% (0 flights per day delayed)
Delay Average: 13 minutes
Current Weather
 13 C (Humidity: 62%)
  5kt (9km/h / 5mph) from 330°
  16km (10 mi.)
 
 METAR PADE 180353Z AUTO 33005KT 10SM CLR 13/06 A3061 RMK AO2 SLP365 T01330056 TSNO $

Current Flights

Departures
Number Departure To Airline
Arrivals
Number Arrival From Airline
 7H3334 16:35 +113  Kotzebue Ravn Alaska

Current Delays

Departures
N/A
Arrivals
N/A

Destinations

Top Destinations
Airport Flights
per week
Seats
per week
  Kotzebue (OTZ) 4 - 0 0
  Buckland (BKC) 0 - 0 0
  Nome (OME) 0 - 0 0

Airlines & Planes

Top Airlines
Airline Flights
per Day
Seats
per Day
Bering Air 0 -
Top Plane Types
Model Flights Seats
Piper PA-31-350 0.7/day - 0
Cessna C208 0.0/day - 0